createdAt,value
2022-10-03T00:01:09.494Z,3.77
2022-10-03T00:03:29.685Z,3.17
2022-10-03T00:06:15.442Z,3.17
2022-10-03T00:08:55.671Z,4.20
2022-10-03T00:11:20.831Z,3.80
2022-10-03T00:13:35.314Z,3.27
2022-10-03T00:15:53.475Z,3.97
2022-10-03T00:18:15.448Z,3.80
2022-10-03T00:20:55.478Z,3.63
2022-10-03T00:23:06.760Z,3.60
2022-10-03T00:25:35.187Z,3.93
2022-10-03T00:27:52.710Z,3.43
2022-10-03T00:30:10.565Z,3.37
2022-10-03T00:32:24.262Z,3.60
2022-10-03T00:34:32.456Z,3.07
2022-10-03T00:36:44.909Z,3.50
2022-10-03T00:39:24.614Z,3.60
2022-10-03T00:41:58.027Z,3.23
2022-10-03T00:44:30.686Z,3.60
2022-10-03T00:46:51.058Z,3.30
2022-10-03T00:49:11.307Z,3.40
2022-10-03T00:51:32.202Z,3.30
2022-10-03T00:53:50.853Z,3.30
2022-10-03T00:56:01.576Z,3.70
2022-10-03T00:58:18.899Z,3.90
2022-10-03T01:00:31.131Z,3.03
2022-10-03T01:02:42.906Z,3.60
2022-10-03T01:04:57.813Z,3.10
2022-10-03T01:07:21.047Z,3.10
2022-10-03T01:10:00.620Z,3.40
2022-10-03T01:12:19.096Z,3.67
2022-10-03T01:14:28.796Z,3.60
2022-10-03T01:16:51.838Z,4.23
2022-10-03T01:18:57.884Z,3.97
2022-10-03T01:21:02.803Z,3.80
2022-10-03T01:23:15.839Z,4.30
2022-10-03T01:25:56.505Z,3.50
2022-10-03T01:28:26.282Z,3.47
2022-10-03T01:30:36.939Z,3.27
2022-10-03T01:32:53.147Z,4.40
2022-10-03T01:35:12.188Z,3.43
2022-10-03T01:37:25.508Z,5.40
2022-10-03T01:39:31.884Z,4.30
2022-10-03T01:41:59.113Z,3.70
2022-10-03T01:44:16.445Z,4.10
2022-10-03T01:46:22.643Z,3.53
2022-10-03T01:48:45.435Z,3.10
2022-10-03T01:51:11.557Z,4.67
2022-10-03T01:53:20.271Z,3.30
2022-10-03T01:55:45.867Z,3.43
2022-10-03T01:57:50.137Z,3.87
2022-10-03T02:00:01.878Z,5.00
2022-10-03T02:02:32.200Z,3.40
2022-10-03T02:04:34.173Z,3.77
2022-10-03T02:06:43.021Z,4.10
2022-10-03T02:08:52.327Z,3.53
2022-10-03T02:11:01.646Z,4.10
2022-10-03T02:13:13.878Z,3.20
2022-10-03T02:15:24.679Z,3.60
2022-10-03T02:17:35.731Z,3.63
2022-10-03T02:19:50.224Z,4.50
2022-10-03T02:21:57.344Z,4.03
2022-10-03T02:24:28.591Z,3.27
2022-10-03T02:26:42.332Z,6.67
2022-10-03T02:28:55.353Z,4.43
2022-10-03T02:31:34.481Z,4.77
2022-10-03T02:33:41.213Z,4.13
2022-10-03T02:36:01.932Z,4.60
2022-10-03T02:38:10.266Z,4.30
2022-10-03T02:40:48.318Z,4.50
2022-10-03T02:43:18.526Z,3.90
2022-10-03T02:45:29.773Z,4.00
2022-10-03T02:48:03.937Z,4.80
2022-10-03T02:50:43.530Z,4.40
2022-10-03T02:52:57.852Z,5.20
2022-10-03T02:55:14.375Z,4.40
2022-10-03T02:57:40.383Z,3.80
2022-10-03T03:00:09.427Z,4.50
2022-10-03T03:02:40.663Z,3.50
2022-10-03T03:05:23.777Z,3.53
2022-10-03T03:08:03.255Z,4.03
2022-10-03T03:10:33.167Z,4.03
2022-10-03T03:13:04.424Z,4.07
2022-10-03T03:15:45.824Z,4.27
2022-10-03T03:18:11.231Z,3.93
2022-10-03T03:20:41.216Z,3.97
2022-10-03T03:23:01.916Z,3.87
2022-10-03T03:25:19.685Z,5.37
2022-10-03T03:27:27.693Z,3.53
2022-10-03T03:29:43.325Z,4.03
2022-10-03T03:31:45.266Z,4.57
2022-10-03T03:34:12.612Z,3.83
2022-10-03T03:36:23.684Z,3.57
2022-10-03T03:38:32.125Z,4.47
2022-10-03T03:40:45.986Z,3.73
2022-10-03T03:43:16.659Z,3.37
2022-10-03T03:45:44.150Z,3.80
2022-10-03T03:47:50.699Z,3.70
2022-10-03T03:50:01.758Z,4.53
2022-10-03T03:52:14.672Z,4.47
2022-10-03T03:54:42.155Z,4.70
2022-10-03T03:56:56.098Z,5.10
2022-10-03T03:59:18.836Z,4.70
2022-10-03T04:01:38.614Z,5.63
2022-10-03T04:04:18.161Z,4.50
2022-10-03T04:06:34.988Z,4.23
2022-10-03T04:09:01.541Z,5.67
2022-10-03T04:11:22.655Z,5.37
2022-10-03T04:13:29.130Z,5.40
2022-10-03T04:15:37.015Z,6.80
2022-10-03T04:18:11.750Z,6.33
2022-10-03T04:20:38.116Z,6.60
2022-10-03T04:22:58.582Z,6.40
2022-10-03T04:25:01.354Z,5.90
2022-10-03T04:27:30.027Z,5.67
2022-10-03T04:29:54.555Z,7.03
2022-10-03T04:32:02.400Z,6.53
2022-10-03T04:34:04.322Z,5.50
2022-10-03T04:36:26.312Z,7.47
2022-10-03T04:38:54.659Z,6.20
2022-10-03T04:41:11.234Z,5.73
2022-10-03T04:43:24.906Z,6.77
2022-10-03T04:45:40.649Z,6.47
2022-10-03T04:47:54.009Z,6.13
2022-10-03T04:50:06.796Z,7.27
2022-10-03T04:52:28.274Z,6.20
2022-10-03T04:54:48.677Z,6.13
2022-10-03T04:56:59.730Z,7.40
2022-10-03T04:59:09.458Z,6.60
2022-10-03T05:01:26.465Z,6.93
2022-10-03T05:03:43.876Z,7.87
2022-10-03T05:05:59.676Z,7.17
2022-10-03T05:08:27.866Z,6.20
2022-10-03T05:10:55.667Z,5.70
2022-10-03T05:13:08.242Z,6.10
2022-10-03T05:15:42.268Z,6.27
2022-10-03T05:17:58.688Z,6.17
2022-10-03T05:20:03.826Z,5.80
2022-10-03T05:22:12.549Z,5.90
2022-10-03T05:24:20.472Z,5.67
2022-10-03T05:26:49.647Z,6.13
2022-10-03T05:29:01.855Z,5.70
2022-10-03T05:31:37.953Z,6.40
2022-10-03T05:33:55.366Z,5.83
2022-10-03T05:36:18.908Z,5.57
2022-10-03T05:38:39.574Z,5.50
2022-10-03T05:40:47.611Z,5.10
2022-10-03T05:42:49.603Z,5.60
2022-10-03T05:45:03.473Z,6.43
2022-10-03T05:47:42.877Z,5.40
2022-10-03T05:50:04.581Z,5.03
2022-10-03T05:52:35.192Z,6.00
2022-10-03T05:54:55.910Z,4.93
2022-10-03T05:57:29.270Z,5.50
2022-10-03T05:59:37.354Z,5.43
2022-10-03T06:02:13.083Z,5.37
2022-10-03T06:04:42.143Z,6.33
2022-10-03T06:07:20.326Z,7.43
2022-10-03T06:10:04.518Z,7.60
2022-10-03T06:12:10.044Z,6.50
2022-10-03T06:14:27.693Z,7.30
2022-10-03T06:16:38.763Z,8.10
2022-10-03T06:19:03.896Z,7.70
2022-10-03T06:21:12.817Z,7.40
2022-10-03T06:23:39.784Z,8.10
2022-10-03T06:26:03.041Z,6.80
2022-10-03T06:28:27.163Z,7.63
2022-10-03T06:31:00.294Z,7.20
2022-10-03T06:33:11.054Z,8.50
2022-10-03T06:35:22.089Z,7.30
2022-10-03T06:37:34.602Z,8.70
2022-10-03T06:40:13.765Z,9.20
2022-10-03T06:42:27.366Z,9.33
2022-10-03T06:44:46.087Z,12.67
2022-10-03T06:47:06.747Z,8.23
2022-10-03T06:49:37.130Z,9.53
2022-10-03T06:51:59.704Z,6.87
2022-10-03T06:54:49.342Z,8.10
2022-10-03T06:57:20.623Z,5.93
2022-10-03T06:59:37.709Z,7.10
2022-10-03T07:02:01.146Z,6.00
2022-10-03T07:04:27.658Z,6.57
2022-10-03T07:06:48.744Z,6.53
2022-10-03T07:09:13.847Z,6.40
2022-10-03T07:11:36.306Z,7.30
2022-10-03T07:14:16.834Z,5.47
2022-10-03T07:16:46.764Z,6.50
2022-10-03T07:19:03.895Z,5.50
2022-10-03T07:21:28.396Z,5.90
2022-10-03T07:23:52.334Z,6.90
2022-10-03T07:26:18.029Z,6.33
2022-10-03T07:29:06.274Z,6.20
2022-10-03T07:31:18.179Z,5.40
2022-10-03T07:33:26.263Z,5.63
2022-10-03T07:36:20.796Z,5.93
2022-10-03T07:38:59.087Z,4.93
2022-10-03T07:41:03.874Z,4.40
2022-10-03T07:43:30.134Z,4.03
2022-10-03T07:45:45.752Z,4.60
2022-10-03T07:48:13.390Z,5.70
2022-10-03T07:50:24.622Z,4.93
2022-10-03T07:52:35.543Z,5.43
2022-10-03T07:54:55.165Z,5.07
2022-10-03T07:57:21.809Z,5.00
2022-10-03T07:59:48.497Z,4.80
2022-10-03T08:01:54.682Z,4.03
2022-10-03T08:04:24.086Z,4.70
2022-10-03T08:06:35.256Z,5.10
2022-10-03T08:09:18.712Z,4.27
2022-10-03T08:11:37.001Z,4.03
2022-10-03T08:14:06.771Z,3.77
2022-10-03T08:16:19.082Z,2.93
2022-10-03T08:18:27.216Z,3.03
2022-10-03T08:20:50.084Z,3.67
2022-10-03T08:23:04.108Z,3.50
2022-10-03T08:25:37.294Z,3.77
2022-10-03T08:28:10.000Z,4.40
2022-10-03T08:30:22.521Z,3.00
2022-10-03T08:32:52.702Z,3.23
2022-10-03T08:35:03.435Z,3.20
2022-10-03T08:37:30.545Z,4.20
2022-10-03T08:40:11.127Z,3.37
2022-10-03T08:42:41.142Z,2.90
2022-10-03T08:45:00.918Z,3.40
2022-10-03T08:47:40.172Z,3.30
2022-10-03T08:49:45.041Z,3.80
2022-10-03T08:51:58.872Z,3.73
2022-10-03T08:54:37.239Z,3.10
2022-10-03T08:57:06.364Z,3.33
2022-10-03T08:59:41.077Z,3.13
2022-10-03T09:02:15.789Z,3.17
2022-10-03T09:04:36.796Z,3.93
2022-10-03T09:07:17.956Z,3.50
2022-10-03T09:09:36.571Z,2.57
2022-10-03T09:11:44.271Z,3.50
2022-10-03T09:13:58.363Z,3.20
2022-10-03T09:16:37.768Z,4.33
2022-10-03T09:19:04.748Z,3.57
2022-10-03T09:21:17.897Z,4.30
2022-10-03T09:23:33.709Z,3.37
2022-10-03T09:25:49.788Z,2.73
2022-10-03T09:28:08.740Z,3.93
2022-10-03T09:30:18.066Z,2.77
2022-10-03T09:32:45.227Z,2.73
2022-10-03T09:34:56.070Z,4.40
2022-10-03T09:37:16.494Z,4.10
2022-10-03T09:39:44.583Z,3.13
2022-10-03T09:41:52.362Z,3.10
2022-10-03T09:44:22.643Z,3.93
2022-10-03T09:46:41.870Z,4.43
2022-10-03T09:49:09.343Z,4.30
2022-10-03T09:51:28.915Z,6.00
2022-10-03T09:53:53.175Z,7.00
2022-10-03T09:56:25.595Z,4.30
2022-10-03T09:58:45.464Z,5.77
2022-10-03T10:01:02.580Z,4.27
2022-10-03T10:03:18.570Z,3.73
2022-10-03T10:05:59.693Z,4.10
2022-10-03T10:08:39.651Z,4.30
2022-10-03T10:10:57.983Z,3.50
2022-10-03T10:13:49.746Z,4.83
2022-10-03T10:16:29.387Z,4.13
2022-10-03T10:18:56.955Z,2.80
2022-10-03T10:21:50.170Z,4.13
2022-10-03T10:24:10.304Z,4.00
2022-10-03T10:26:34.106Z,3.50
2022-10-03T10:28:51.544Z,3.70
2022-10-03T10:31:26.282Z,3.50
2022-10-03T10:34:03.361Z,3.90
2022-10-03T10:36:40.827Z,2.90
2022-10-03T10:38:43.598Z,2.87
2022-10-03T10:41:28.480Z,3.47
2022-10-03T10:44:02.244Z,3.10
2022-10-03T10:46:13.418Z,4.07
2022-10-03T10:48:33.993Z,3.20
2022-10-03T10:51:15.785Z,2.90
2022-10-03T10:53:55.461Z,2.93
2022-10-03T10:56:35.197Z,3.73
2022-10-03T10:58:57.952Z,3.03
2022-10-03T11:01:37.963Z,3.07
2022-10-03T11:04:01.528Z,2.63
2022-10-03T11:06:18.642Z,3.67
2022-10-03T11:08:49.945Z,3.20
2022-10-03T11:10:52.573Z,2.50
2022-10-03T11:13:35.633Z,2.30
2022-10-03T11:15:54.878Z,2.10
2022-10-03T11:18:08.681Z,2.50
2022-10-03T11:20:20.288Z,2.60
2022-10-03T11:22:38.460Z,3.30
2022-10-03T11:24:58.873Z,2.40
2022-10-03T11:27:36.209Z,2.20
2022-10-03T11:29:59.687Z,4.50
2022-10-03T11:32:26.566Z,3.27
2022-10-03T11:34:56.150Z,2.40
2022-10-03T11:37:08.266Z,2.97
2022-10-03T11:39:43.839Z,2.83
2022-10-03T11:42:10.790Z,2.30
2022-10-03T11:44:25.823Z,1.93
2022-10-03T11:46:44.972Z,2.63
2022-10-03T11:48:57.154Z,1.80
2022-10-03T11:51:05.631Z,2.00
2022-10-03T11:53:10.473Z,3.00
2022-10-03T11:55:18.344Z,2.27
2022-10-03T11:57:34.675Z,1.90
2022-10-03T12:00:00.355Z,2.40
2022-10-03T12:02:30.463Z,1.87
2022-10-03T12:04:47.000Z,2.10
2022-10-03T12:07:07.804Z,2.57
2022-10-03T12:09:57.635Z,2.10
2022-10-03T12:12:07.114Z,2.30
2022-10-03T12:14:34.888Z,2.10
2022-10-03T12:17:08.552Z,2.00
2022-10-03T12:19:30.880Z,2.00
2022-10-03T12:21:39.476Z,2.40
2022-10-03T12:23:59.900Z,3.30
2022-10-03T12:26:03.516Z,2.30
2022-10-03T12:28:15.514Z,1.60
2022-10-03T12:30:19.846Z,1.73
2022-10-03T12:32:41.249Z,2.83
2022-10-03T12:34:51.214Z,1.70
2022-10-03T12:37:17.730Z,1.70
2022-10-03T12:39:45.004Z,3.20
2022-10-03T12:41:49.755Z,1.90
2022-10-03T12:44:21.548Z,2.70
2022-10-03T12:47:03.290Z,2.13
2022-10-03T12:49:29.839Z,2.33
2022-10-03T12:51:39.761Z,1.60
2022-10-03T12:53:57.876Z,2.07
2022-10-03T12:56:02.593Z,1.60
2022-10-03T12:58:30.979Z,1.70
2022-10-03T13:00:49.635Z,1.43
2022-10-03T13:03:09.507Z,2.00
2022-10-03T13:05:56.341Z,2.13
2022-10-03T13:08:27.614Z,1.80
2022-10-03T13:10:39.392Z,1.60
2022-10-03T13:13:16.642Z,1.70
2022-10-03T13:15:42.815Z,1.33
2022-10-03T13:17:55.247Z,1.60
2022-10-03T13:20:01.664Z,1.87
2022-10-03T13:22:15.547Z,1.73
2022-10-03T13:24:32.080Z,2.13
2022-10-03T13:26:49.303Z,1.50
2022-10-03T13:29:17.352Z,2.60
2022-10-03T13:31:24.342Z,1.40
2022-10-03T13:33:29.618Z,1.90
2022-10-03T13:35:55.848Z,1.80
2022-10-03T13:38:32.639Z,2.70
2022-10-03T13:40:43.442Z,2.37
2022-10-03T13:42:52.304Z,2.47
2022-10-03T13:45:03.458Z,2.20
2022-10-03T13:47:30.030Z,2.83
2022-10-03T13:49:37.170Z,2.97
2022-10-03T13:52:02.821Z,2.87
2022-10-03T13:54:21.278Z,2.03
2022-10-03T13:56:45.332Z,2.90
2022-10-03T13:59:09.722Z,2.20
2022-10-03T14:01:24.280Z,1.70
2022-10-03T14:03:32.127Z,1.93
2022-10-03T14:05:40.823Z,1.60
2022-10-03T14:07:59.956Z,1.53
2022-10-03T14:10:37.305Z,1.47
2022-10-03T14:12:55.658Z,2.50
2022-10-03T14:15:06.733Z,1.60
2022-10-03T14:17:13.914Z,1.57
2022-10-03T14:19:24.569Z,1.67
2022-10-03T14:21:46.654Z,1.80
2022-10-03T14:23:48.621Z,1.90
2022-10-03T14:25:56.550Z,1.80
2022-10-03T14:28:07.364Z,1.33
2022-10-03T14:30:20.284Z,1.60
2022-10-03T14:32:48.124Z,1.77
2022-10-03T14:34:53.660Z,1.73
2022-10-03T14:37:15.307Z,1.80
2022-10-03T14:39:40.613Z,1.50
2022-10-03T14:41:52.207Z,1.60
2022-10-03T14:44:00.123Z,2.13
2022-10-03T14:46:03.231Z,1.93
2022-10-03T14:48:08.742Z,1.80
2022-10-03T14:50:25.865Z,1.60
2022-10-03T14:52:32.452Z,2.03
2022-10-03T14:54:37.747Z,1.70
2022-10-03T14:56:45.112Z,1.70
2022-10-03T14:58:50.548Z,1.53
2022-10-03T15:01:01.750Z,1.90
2022-10-03T15:03:16.573Z,1.43
2022-10-03T15:05:33.314Z,1.17
2022-10-03T15:07:40.027Z,1.57
2022-10-03T15:09:43.529Z,2.33
2022-10-03T15:11:58.930Z,2.37
2022-10-03T15:14:09.444Z,1.67
2022-10-03T15:16:16.029Z,1.77
2022-10-03T15:18:21.532Z,1.77
2022-10-03T15:20:31.241Z,1.70
2022-10-03T15:22:39.624Z,1.50
2022-10-03T15:24:42.099Z,1.43
2022-10-03T15:26:50.105Z,1.83
2022-10-03T15:28:54.532Z,1.60
2022-10-03T15:30:59.089Z,1.50
2022-10-03T15:33:15.256Z,1.50
2022-10-03T15:35:25.168Z,1.53
2022-10-03T15:37:33.946Z,2.23
2022-10-03T15:39:40.411Z,1.60
2022-10-03T15:42:14.399Z,1.37
2022-10-03T15:44:22.106Z,1.70
2022-10-03T15:46:36.647Z,1.97
2022-10-03T15:48:45.384Z,2.00
2022-10-03T15:50:52.206Z,1.80
2022-10-03T15:53:04.653Z,1.93
2022-10-03T15:55:26.961Z,1.70
2022-10-03T15:57:36.192Z,2.43
2022-10-03T15:59:43.549Z,1.87
2022-10-03T16:01:48.268Z,1.90
2022-10-03T16:03:52.558Z,2.97
2022-10-03T16:06:03.478Z,2.40
2022-10-03T16:08:19.589Z,2.10
2022-10-03T16:10:24.222Z,1.90
2022-10-03T16:12:38.409Z,2.40
2022-10-03T16:14:48.162Z,2.17
2022-10-03T16:16:59.786Z,2.43
2022-10-03T16:19:40.088Z,2.43
2022-10-03T16:21:48.884Z,1.83
2022-10-03T16:23:54.092Z,2.83
2022-10-03T16:25:59.929Z,2.33
2022-10-03T16:28:12.882Z,2.37
2022-10-03T16:30:21.978Z,2.50
2022-10-03T16:32:27.803Z,2.87
2022-10-03T16:34:31.185Z,2.77
2022-10-03T16:36:42.565Z,2.90
2022-10-03T16:38:47.498Z,2.50
2022-10-03T16:40:54.175Z,2.50
2022-10-03T16:42:58.941Z,2.20
2022-10-03T16:45:02.084Z,2.27
2022-10-03T16:47:05.487Z,2.73
2022-10-03T16:49:37.291Z,2.40
2022-10-03T16:52:02.337Z,2.27
2022-10-03T16:54:04.736Z,1.97
2022-10-03T16:56:08.146Z,2.47
2022-10-03T16:58:17.826Z,2.10
2022-10-03T17:00:27.211Z,3.00
2022-10-03T17:02:30.306Z,3.07
2022-10-03T17:04:39.178Z,2.80
2022-10-03T17:06:45.480Z,2.37
2022-10-03T17:08:51.429Z,2.03
2022-10-03T17:10:58.672Z,2.93
2022-10-03T17:13:04.464Z,2.87
2022-10-03T17:15:21.432Z,2.50
2022-10-03T17:17:25.924Z,2.50
2022-10-03T17:19:35.327Z,3.10
2022-10-03T17:21:41.923Z,2.57
2022-10-03T17:24:02.448Z,2.97
2022-10-03T17:26:21.291Z,2.70
2022-10-03T17:28:29.848Z,3.00
2022-10-03T17:31:00.533Z,2.97
2022-10-03T17:33:15.233Z,3.20
2022-10-03T17:35:28.353Z,4.73
2022-10-03T17:37:49.185Z,3.10
2022-10-03T17:40:00.039Z,2.93
2022-10-03T17:42:15.434Z,4.40
2022-10-03T17:44:36.564Z,3.17
2022-10-03T17:46:46.398Z,3.40
2022-10-03T17:49:07.447Z,3.57
2022-10-03T17:51:31.490Z,3.57
2022-10-03T17:53:36.600Z,3.67
2022-10-03T17:55:41.348Z,3.07
2022-10-03T17:57:50.559Z,3.57
2022-10-03T18:00:07.455Z,3.40
2022-10-03T18:02:21.290Z,4.53
2022-10-03T18:04:31.028Z,2.93
2022-10-03T18:06:38.974Z,3.20
2022-10-03T18:08:41.715Z,3.30
2022-10-03T18:10:49.381Z,3.43
2022-10-03T18:12:54.375Z,3.40
2022-10-03T18:15:20.838Z,3.60
2022-10-03T18:17:49.176Z,3.53
2022-10-03T18:19:56.923Z,3.17
2022-10-03T18:22:40.951Z,3.43
2022-10-03T18:24:56.568Z,3.50
2022-10-03T18:27:44.098Z,3.33
2022-10-03T18:30:17.355Z,2.93
2022-10-03T18:32:22.620Z,3.37
2022-10-03T18:34:34.545Z,3.17
2022-10-03T18:36:42.048Z,2.93
2022-10-03T18:38:44.999Z,3.00
2022-10-03T18:40:59.367Z,3.43
2022-10-03T18:43:05.175Z,3.03
2022-10-03T18:45:16.007Z,3.40
2022-10-03T18:47:23.310Z,3.10
2022-10-03T18:49:34.096Z,2.90
2022-10-03T18:51:46.291Z,4.13
2022-10-03T18:53:54.796Z,3.70
2022-10-03T18:56:21.897Z,2.83
2022-10-03T18:58:35.882Z,2.93
2022-10-03T19:00:48.125Z,2.80
2022-10-03T19:02:53.612Z,2.63
2022-10-03T19:05:00.038Z,3.27
2022-10-03T19:07:10.578Z,3.30
2022-10-03T19:09:22.400Z,3.47
2022-10-03T19:11:32.690Z,2.77
2022-10-03T19:14:00.490Z,2.80
2022-10-03T19:16:02.402Z,3.00
2022-10-03T19:18:21.090Z,2.63
2022-10-03T19:20:33.008Z,2.40
2022-10-03T19:22:39.929Z,2.77
2022-10-03T19:24:58.347Z,2.70
2022-10-03T19:27:10.979Z,2.23
2022-10-03T19:29:18.339Z,2.30
2022-10-03T19:31:30.823Z,2.03
2022-10-03T19:33:38.908Z,2.40
2022-10-03T19:35:47.529Z,2.47
2022-10-03T19:37:55.599Z,2.60
2022-10-03T19:39:58.833Z,2.10
2022-10-03T19:42:36.337Z,2.47
2022-10-03T19:44:38.687Z,2.50
2022-10-03T19:46:58.907Z,2.83
2022-10-03T19:49:00.863Z,2.37
2022-10-03T19:51:29.079Z,2.40
2022-10-03T19:53:31.890Z,2.57
2022-10-03T19:55:37.239Z,2.40
2022-10-03T19:57:45.345Z,2.10
2022-10-03T19:59:52.357Z,2.07
2022-10-03T20:01:57.712Z,2.00
2022-10-03T20:04:36.540Z,2.47
2022-10-03T20:06:43.124Z,2.27
2022-10-03T20:09:06.423Z,2.40
2022-10-03T20:11:45.931Z,2.27
2022-10-03T20:13:48.891Z,3.00
2022-10-03T20:15:52.453Z,2.17
2022-10-03T20:18:02.622Z,2.70
2022-10-03T20:20:07.825Z,2.50
2022-10-03T20:22:13.284Z,2.37
2022-10-03T20:24:57.629Z,2.00
2022-10-03T20:27:12.287Z,2.40
2022-10-03T20:29:23.970Z,2.30
2022-10-03T20:31:28.090Z,2.47
2022-10-03T20:33:32.901Z,2.27
2022-10-03T20:36:02.209Z,2.20
2022-10-03T20:38:07.829Z,2.40
2022-10-03T20:40:28.464Z,2.13
2022-10-03T20:42:36.445Z,2.83
2022-10-03T20:44:56.683Z,2.30
2022-10-03T20:47:14.555Z,2.40
2022-10-03T20:49:27.728Z,2.00
2022-10-03T20:51:42.629Z,2.70
2022-10-03T20:53:45.111Z,2.13
2022-10-03T20:55:51.214Z,2.50
2022-10-03T20:58:00.223Z,2.40
2022-10-03T21:00:10.738Z,2.50
2022-10-03T21:02:26.003Z,2.30
2022-10-03T21:04:31.516Z,2.07
2022-10-03T21:06:42.934Z,2.10
2022-10-03T21:08:45.220Z,2.00
2022-10-03T21:11:03.051Z,2.97
2022-10-03T21:13:15.339Z,4.43
2022-10-03T21:15:29.573Z,2.33
2022-10-03T21:17:32.493Z,2.40
2022-10-03T21:19:34.364Z,2.47
2022-10-03T21:21:42.337Z,2.20
2022-10-03T21:24:01.010Z,3.23
2022-10-03T21:26:03.494Z,2.90
2022-10-03T21:28:22.855Z,2.50
2022-10-03T21:30:52.188Z,2.10
2022-10-03T21:33:07.992Z,2.43
2022-10-03T21:35:26.749Z,2.63
2022-10-03T21:37:40.927Z,2.20
2022-10-03T21:39:54.917Z,2.60
2022-10-03T21:41:59.453Z,2.17
2022-10-03T21:44:03.897Z,2.23
2022-10-03T21:46:11.939Z,2.20
2022-10-03T21:48:26.184Z,2.67
2022-10-03T21:50:30.660Z,2.10
2022-10-03T21:52:50.678Z,3.20
2022-10-03T21:55:15.779Z,2.20
2022-10-03T21:57:39.291Z,3.30
2022-10-03T21:59:47.333Z,2.80
2022-10-03T22:01:57.355Z,2.70
2022-10-03T22:04:08.518Z,2.70
2022-10-03T22:06:26.628Z,2.43
2022-10-03T22:08:48.240Z,2.43
2022-10-03T22:11:08.810Z,2.47
2022-10-03T22:13:16.565Z,2.60
2022-10-03T22:15:26.339Z,2.33
2022-10-03T22:17:52.865Z,2.07
2022-10-03T22:20:16.568Z,2.27
2022-10-03T22:22:24.720Z,3.20
2022-10-03T22:24:55.928Z,2.40
2022-10-03T22:27:29.174Z,2.50
2022-10-03T22:29:44.426Z,2.27
2022-10-03T22:32:07.515Z,2.90
2022-10-03T22:34:34.209Z,2.50
2022-10-03T22:36:37.445Z,2.60
2022-10-03T22:38:40.839Z,2.20
2022-10-03T22:40:43.506Z,2.40
2022-10-03T22:42:51.314Z,2.47
2022-10-03T22:44:54.934Z,2.23
2022-10-03T22:47:00.298Z,2.70
2022-10-03T22:49:16.225Z,2.30
2022-10-03T22:51:20.268Z,2.50
2022-10-03T22:53:25.718Z,1.97
2022-10-03T22:55:28.256Z,2.27
2022-10-03T22:57:34.998Z,1.97
2022-10-03T23:00:02.315Z,2.93
2022-10-03T23:02:06.553Z,2.17
2022-10-03T23:04:13.766Z,2.50
2022-10-03T23:06:33.664Z,3.10
2022-10-03T23:08:50.556Z,2.60
2022-10-03T23:10:56.934Z,2.50
2022-10-03T23:13:07.739Z,2.37
2022-10-03T23:15:10.266Z,2.70
2022-10-03T23:17:33.678Z,2.50
2022-10-03T23:19:44.850Z,2.07
2022-10-03T23:21:51.776Z,2.87
2022-10-03T23:24:05.822Z,2.73
2022-10-03T23:26:26.363Z,3.57
2022-10-03T23:29:02.901Z,4.03
2022-10-03T23:31:05.468Z,3.10
2022-10-03T23:33:15.695Z,2.40
2022-10-03T23:35:35.178Z,2.40
2022-10-03T23:37:40.194Z,2.60
2022-10-03T23:39:57.068Z,2.73
2022-10-03T23:42:01.082Z,2.50
2022-10-03T23:44:03.040Z,2.60
2022-10-03T23:46:29.384Z,2.90
2022-10-03T23:48:40.035Z,3.40
2022-10-03T23:50:58.107Z,2.93
2022-10-03T23:53:00.663Z,3.90
2022-10-03T23:55:06.651Z,3.10
2022-10-03T23:57:09.411Z,3.40
2022-10-03T23:59:24.106Z,3.40
